sensor_id;sensor_type;location;lat;lon;timestamp;temperature;humidity
11991;DHT22;6055;52.522;13.446;2022-07-15T00:01:50;16.70;99.90
11991;DHT22;6055;52.522;13.446;2022-07-15T00:04:15;16.60;99.90
11991;DHT22;6055;52.522;13.446;2022-07-15T00:06:41;16.60;99.90
11991;DHT22;6055;52.522;13.446;2022-07-15T00:09:07;16.50;99.90
11991;DHT22;6055;52.522;13.446;2022-07-15T00:11:32;16.40;99.90
11991;DHT22;6055;52.522;13.446;2022-07-15T00:13:58;16.50;99.90
11991;DHT22;6055;52.522;13.446;2022-07-15T00:16:23;16.40;99.90
11991;DHT22;6055;52.522;13.446;2022-07-15T00:18:49;16.40;99.90
11991;DHT22;6055;52.522;13.446;2022-07-15T00:21:15;16.40;99.90
11991;DHT22;6055;52.522;13.446;2022-07-15T00:23:40;16.30;99.90
11991;DHT22;6055;52.522;13.446;2022-07-15T00:26:05;16.10;99.90
11991;DHT22;6055;52.522;13.446;2022-07-15T00:28:34;16.10;99.90
11991;DHT22;6055;52.522;13.446;2022-07-15T00:30:59;16.10;99.90
11991;DHT22;6055;52.522;13.446;2022-07-15T00:33:25;16.00;99.90
11991;DHT22;6055;52.522;13.446;2022-07-15T00:35:51;16.10;99.90
11991;DHT22;6055;52.522;13.446;2022-07-15T00:38:16;16.10;99.90
11991;DHT22;6055;52.522;13.446;2022-07-15T00:40:46;16.10;99.90
11991;DHT22;6055;52.522;13.446;2022-07-15T00:43:13;16.10;99.90
11991;DHT22;6055;52.522;13.446;2022-07-15T00:45:38;16.10;99.90
11991;DHT22;6055;52.522;13.446;2022-07-15T00:48:04;16.00;99.90
11991;DHT22;6055;52.522;13.446;2022-07-15T00:50:30;15.80;99.90
11991;DHT22;6055;52.522;13.446;2022-07-15T00:55:27;15.70;99.90
11991;DHT22;6055;52.522;13.446;2022-07-15T00:57:59;15.70;99.90
11991;DHT22;6055;52.522;13.446;2022-07-15T01:00:25;15.80;99.90
11991;DHT22;6055;52.522;13.446;2022-07-15T01:02:52;15.70;99.90
11991;DHT22;6055;52.522;13.446;2022-07-15T01:05:19;15.70;99.90
11991;DHT22;6055;52.522;13.446;2022-07-15T01:07:46;15.60;99.90
11991;DHT22;6055;52.522;13.446;2022-07-15T01:10:12;15.50;99.90
11991;DHT22;6055;52.522;13.446;2022-07-15T01:12:38;15.50;99.90
11991;DHT22;6055;52.522;13.446;2022-07-15T01:15:06;15.40;99.90
11991;DHT22;6055;52.522;13.446;2022-07-15T01:17:33;15.40;99.90
11991;DHT22;6055;52.522;13.446;2022-07-15T01:19:59;15.30;99.90
11991;DHT22;6055;52.522;13.446;2022-07-15T01:22:24;15.30;99.90
11991;DHT22;6055;52.522;13.446;2022-07-15T01:24:50;15.30;99.90
11991;DHT22;6055;52.522;13.446;2022-07-15T01:27:16;15.30;99.90
11991;DHT22;6055;52.522;13.446;2022-07-15T01:29:42;15.30;99.90
11991;DHT22;6055;52.522;13.446;2022-07-15T01:32:07;15.30;99.90
11991;DHT22;6055;52.522;13.446;2022-07-15T01:34:33;15.20;99.90
11991;DHT22;6055;52.522;13.446;2022-07-15T01:36:59;15.20;99.90
11991;DHT22;6055;52.522;13.446;2022-07-15T01:39:24;15.30;99.90
11991;DHT22;6055;52.522;13.446;2022-07-15T01:41:50;15.30;99.90
11991;DHT22;6055;52.522;13.446;2022-07-15T01:44:15;15.20;99.90
11991;DHT22;6055;52.522;13.446;2022-07-15T01:46:41;15.20;99.90
11991;DHT22;6055;52.522;13.446;2022-07-15T01:49:07;15.30;99.90
11991;DHT22;6055;52.522;13.446;2022-07-15T01:51:54;15.20;99.90
11991;DHT22;6055;52.522;13.446;2022-07-15T01:54:24;15.10;99.90
11991;DHT22;6055;52.522;13.446;2022-07-15T01:56:51;15.10;99.90
11991;DHT22;6055;52.522;13.446;2022-07-15T01:59:17;15.10;99.90
11991;DHT22;6055;52.522;13.446;2022-07-15T02:01:43;15.10;99.90
11991;DHT22;6055;52.522;13.446;2022-07-15T02:04:10;15.00;99.90
11991;DHT22;6055;52.522;13.446;2022-07-15T02:06:35;15.00;99.90
11991;DHT22;6055;52.522;13.446;2022-07-15T02:09:01;14.90;99.90
11991;DHT22;6055;52.522;13.446;2022-07-15T02:11:26;14.90;99.90
11991;DHT22;6055;52.522;13.446;2022-07-15T02:13:52;15.00;99.90
11991;DHT22;6055;52.522;13.446;2022-07-15T02:16:21;14.90;99.90
11991;DHT22;6055;52.522;13.446;2022-07-15T02:18:46;14.90;99.90
11991;DHT22;6055;52.522;13.446;2022-07-15T02:21:12;14.90;99.90
11991;DHT22;6055;52.522;13.446;2022-07-15T02:23:37;14.70;99.90
11991;DHT22;6055;52.522;13.446;2022-07-15T02:26:03;14.70;99.90
11991;DHT22;6055;52.522;13.446;2022-07-15T02:28:28;14.60;99.90
11991;DHT22;6055;52.522;13.446;2022-07-15T02:30:54;14.60;99.90
11991;DHT22;6055;52.522;13.446;2022-07-15T02:33:20;14.70;99.90
11991;DHT22;6055;52.522;13.446;2022-07-15T02:35:45;14.70;99.90
11991;DHT22;6055;52.522;13.446;2022-07-15T02:38:11;14.70;99.90
11991;DHT22;6055;52.522;13.446;2022-07-15T02:40:37;14.70;99.90
11991;DHT22;6055;52.522;13.446;2022-07-15T02:43:03;14.70;99.90
11991;DHT22;6055;52.522;13.446;2022-07-15T02:45:30;14.60;99.90
11991;DHT22;6055;52.522;13.446;2022-07-15T02:47:58;14.50;99.90
11991;DHT22;6055;52.522;13.446;2022-07-15T02:50:25;14.50;99.90
11991;DHT22;6055;52.522;13.446;2022-07-15T02:52:50;14.50;99.90
11991;DHT22;6055;52.522;13.446;2022-07-15T02:55:16;14.50;99.90
11991;DHT22;6055;52.522;13.446;2022-07-15T02:57:42;14.50;99.90
11991;DHT22;6055;52.522;13.446;2022-07-15T03:00:11;14.50;99.90
11991;DHT22;6055;52.522;13.446;2022-07-15T03:02:37;14.50;99.90
11991;DHT22;6055;52.522;13.446;2022-07-15T03:05:04;14.50;99.90
11991;DHT22;6055;52.522;13.446;2022-07-15T03:07:29;14.50;99.90
11991;DHT22;6055;52.522;13.446;2022-07-15T03:09:55;14.40;99.90
11991;DHT22;6055;52.522;13.446;2022-07-15T03:12:21;14.40;99.90
11991;DHT22;6055;52.522;13.446;2022-07-15T03:14:46;14.50;99.90
11991;DHT22;6055;52.522;13.446;2022-07-15T03:17:12;14.50;99.90
11991;DHT22;6055;52.522;13.446;2022-07-15T03:19:38;14.50;99.90
11991;DHT22;6055;52.522;13.446;2022-07-15T03:22:05;14.50;99.90
11991;DHT22;6055;52.522;13.446;2022-07-15T03:24:30;14.40;99.90
11991;DHT22;6055;52.522;13.446;2022-07-15T03:26:56;14.40;99.90
11991;DHT22;6055;52.522;13.446;2022-07-15T03:29:22;14.50;99.90
11991;DHT22;6055;52.522;13.446;2022-07-15T03:31:47;14.50;99.90
11991;DHT22;6055;52.522;13.446;2022-07-15T03:34:13;14.40;99.90
11991;DHT22;6055;52.522;13.446;2022-07-15T03:36:39;14.40;99.90
11991;DHT22;6055;52.522;13.446;2022-07-15T03:39:06;14.30;99.90
11991;DHT22;6055;52.522;13.446;2022-07-15T03:41:32;14.30;99.90
11991;DHT22;6055;52.522;13.446;2022-07-15T03:43:58;14.40;99.90
11991;DHT22;6055;52.522;13.446;2022-07-15T03:46:24;14.40;99.90
11991;DHT22;6055;52.522;13.446;2022-07-15T03:48:50;14.40;99.90
11991;DHT22;6055;52.522;13.446;2022-07-15T03:51:15;14.50;99.90
11991;DHT22;6055;52.522;13.446;2022-07-15T03:53:41;14.40;99.90
11991;DHT22;6055;52.522;13.446;2022-07-15T03:56:07;14.40;99.90
11991;DHT22;6055;52.522;13.446;2022-07-15T03:58:32;14.50;99.90
11991;DHT22;6055;52.522;13.446;2022-07-15T04:00:58;14.40;99.90
11991;DHT22;6055;52.522;13.446;2022-07-15T04:03:23;14.40;99.90
11991;DHT22;6055;52.522;13.446;2022-07-15T04:05:49;14.40;99.90
11991;DHT22;6055;52.522;13.446;2022-07-15T04:08:15;14.40;99.90
11991;DHT22;6055;52.522;13.446;2022-07-15T04:10:40;14.40;99.90
11991;DHT22;6055;52.522;13.446;2022-07-15T04:13:06;14.50;99.90
11991;DHT22;6055;52.522;13.446;2022-07-15T04:15:31;14.60;99.90
11991;DHT22;6055;52.522;13.446;2022-07-15T04:17:57;14.70;99.90
11991;DHT22;6055;52.522;13.446;2022-07-15T04:20:24;14.60;99.90
11991;DHT22;6055;52.522;13.446;2022-07-15T04:22:50;14.70;99.90
11991;DHT22;6055;52.522;13.446;2022-07-15T04:25:18;14.90;99.90
11991;DHT22;6055;52.522;13.446;2022-07-15T04:27:44;14.90;99.90
11991;DHT22;6055;52.522;13.446;2022-07-15T04:30:10;15.00;99.90
11991;DHT22;6055;52.522;13.446;2022-07-15T04:32:36;14.90;99.90
11991;DHT22;6055;52.522;13.446;2022-07-15T04:35:01;15.00;99.90
11991;DHT22;6055;52.522;13.446;2022-07-15T04:37:28;14.90;99.90
11991;DHT22;6055;52.522;13.446;2022-07-15T04:39:54;14.70;99.90
11991;DHT22;6055;52.522;13.446;2022-07-15T04:42:20;14.60;99.90
11991;DHT22;6055;52.522;13.446;2022-07-15T04:44:46;14.60;99.90
11991;DHT22;6055;52.522;13.446;2022-07-15T04:47:12;14.50;99.90
11991;DHT22;6055;52.522;13.446;2022-07-15T04:49:38;14.50;99.90
11991;DHT22;6055;52.522;13.446;2022-07-15T04:52:22;14.60;99.90
11991;DHT22;6055;52.522;13.446;2022-07-15T04:54:50;14.70;99.90
11991;DHT22;6055;52.522;13.446;2022-07-15T04:57:15;14.70;99.90
11991;DHT22;6055;52.522;13.446;2022-07-15T04:59:41;14.70;99.90
11991;DHT22;6055;52.522;13.446;2022-07-15T05:02:06;14.80;99.90
11991;DHT22;6055;52.522;13.446;2022-07-15T05:04:32;14.90;99.90
11991;DHT22;6055;52.522;13.446;2022-07-15T05:06:57;14.90;99.90
11991;DHT22;6055;52.522;13.446;2022-07-15T05:09:23;14.90;99.90
11991;DHT22;6055;52.522;13.446;2022-07-15T05:11:48;14.90;99.90
11991;DHT22;6055;52.522;13.446;2022-07-15T05:14:14;15.00;99.90
11991;DHT22;6055;52.522;13.446;2022-07-15T05:16:39;15.20;99.90
11991;DHT22;6055;52.522;13.446;2022-07-15T05:19:05;15.20;99.90
11991;DHT22;6055;52.522;13.446;2022-07-15T05:21:30;15.10;99.90
11991;DHT22;6055;52.522;13.446;2022-07-15T05:23:56;15.10;99.90
11991;DHT22;6055;52.522;13.446;2022-07-15T05:26:21;15.10;99.90
11991;DHT22;6055;52.522;13.446;2022-07-15T05:28:47;15.10;99.90
11991;DHT22;6055;52.522;13.446;2022-07-15T05:31:12;15.10;99.90
11991;DHT22;6055;52.522;13.446;2022-07-15T05:33:38;15.00;99.90
11991;DHT22;6055;52.522;13.446;2022-07-15T05:36:04;14.90;99.90
11991;DHT22;6055;52.522;13.446;2022-07-15T05:38:30;14.90;99.90
11991;DHT22;6055;52.522;13.446;2022-07-15T05:40:56;15.00;99.90
11991;DHT22;6055;52.522;13.446;2022-07-15T05:43:21;15.00;99.90
11991;DHT22;6055;52.522;13.446;2022-07-15T05:45:47;15.10;99.90
11991;DHT22;6055;52.522;13.446;2022-07-15T05:48:12;15.00;99.90
11991;DHT22;6055;52.522;13.446;2022-07-15T05:50:38;15.00;99.90
11991;DHT22;6055;52.522;13.446;2022-07-15T05:53:04;15.10;99.90
11991;DHT22;6055;52.522;13.446;2022-07-15T05:55:29;15.20;99.90
11991;DHT22;6055;52.522;13.446;2022-07-15T05:57:55;15.30;99.90
11991;DHT22;6055;52.522;13.446;2022-07-15T06:00:21;15.30;99.90
11991;DHT22;6055;52.522;13.446;2022-07-15T06:02:47;15.40;99.90
11991;DHT22;6055;52.522;13.446;2022-07-15T06:05:12;15.50;99.90
11991;DHT22;6055;52.522;13.446;2022-07-15T06:07:41;15.60;99.90
11991;DHT22;6055;52.522;13.446;2022-07-15T06:10:07;15.70;99.90
11991;DHT22;6055;52.522;13.446;2022-07-15T06:12:33;15.70;99.90
11991;DHT22;6055;52.522;13.446;2022-07-15T06:14:59;15.80;99.90
11991;DHT22;6055;52.522;13.446;2022-07-15T06:17:25;16.00;99.90
11991;DHT22;6055;52.522;13.446;2022-07-15T06:19:50;16.20;99.90
11991;DHT22;6055;52.522;13.446;2022-07-15T06:22:16;16.30;99.90
11991;DHT22;6055;52.522;13.446;2022-07-15T06:24:41;16.50;99.90
11991;DHT22;6055;52.522;13.446;2022-07-15T06:27:07;16.60;99.90
11991;DHT22;6055;52.522;13.446;2022-07-15T06:29:32;16.70;99.90
11991;DHT22;6055;52.522;13.446;2022-07-15T06:31:58;16.80;99.90
11991;DHT22;6055;52.522;13.446;2022-07-15T06:34:23;16.80;99.90
11991;DHT22;6055;52.522;13.446;2022-07-15T06:36:49;16.80;99.90
11991;DHT22;6055;52.522;13.446;2022-07-15T06:39:15;16.80;99.90
11991;DHT22;6055;52.522;13.446;2022-07-15T06:41:42;16.70;99.90
11991;DHT22;6055;52.522;13.446;2022-07-15T06:44:07;16.70;99.90
11991;DHT22;6055;52.522;13.446;2022-07-15T06:46:33;16.70;99.90
11991;DHT22;6055;52.522;13.446;2022-07-15T06:48:58;16.80;99.90
11991;DHT22;6055;52.522;13.446;2022-07-15T06:51:25;16.90;99.90
11991;DHT22;6055;52.522;13.446;2022-07-15T06:53:50;16.90;99.90
11991;DHT22;6055;52.522;13.446;2022-07-15T06:56:16;16.90;99.90
11991;DHT22;6055;52.522;13.446;2022-07-15T06:58:41;17.00;99.90
11991;DHT22;6055;52.522;13.446;2022-07-15T07:01:07;16.80;99.90
11991;DHT22;6055;52.522;13.446;2022-07-15T07:03:32;16.80;99.90
11991;DHT22;6055;52.522;13.446;2022-07-15T07:05:58;16.80;99.90
11991;DHT22;6055;52.522;13.446;2022-07-15T07:08:23;16.80;99.90
11991;DHT22;6055;52.522;13.446;2022-07-15T07:10:49;17.00;99.90
11991;DHT22;6055;52.522;13.446;2022-07-15T07:13:15;17.10;99.90
11991;DHT22;6055;52.522;13.446;2022-07-15T07:15:40;17.20;99.90
11991;DHT22;6055;52.522;13.446;2022-07-15T07:18:06;17.30;99.90
11991;DHT22;6055;52.522;13.446;2022-07-15T07:20:31;17.20;99.90
11991;DHT22;6055;52.522;13.446;2022-07-15T07:22:57;17.20;99.90
11991;DHT22;6055;52.522;13.446;2022-07-15T07:25:23;17.10;99.90
11991;DHT22;6055;52.522;13.446;2022-07-15T07:27:49;17.10;99.70
11991;DHT22;6055;52.522;13.446;2022-07-15T07:30:15;17.10;99.60
11991;DHT22;6055;52.522;13.446;2022-07-15T07:32:40;17.10;99.30
11991;DHT22;6055;52.522;13.446;2022-07-15T07:35:07;17.10;99.80
11991;DHT22;6055;52.522;13.446;2022-07-15T07:37:36;17.20;99.90
11991;DHT22;6055;52.522;13.446;2022-07-15T07:40:06;17.20;99.90
11991;DHT22;6055;52.522;13.446;2022-07-15T07:42:32;17.30;99.90
11991;DHT22;6055;52.522;13.446;2022-07-15T07:44:57;17.40;99.90
11991;DHT22;6055;52.522;13.446;2022-07-15T07:47:25;17.40;99.20
11991;DHT22;6055;52.522;13.446;2022-07-15T07:49:50;17.30;99.60
11991;DHT22;6055;52.522;13.446;2022-07-15T07:52:16;17.30;99.00
11991;DHT22;6055;52.522;13.446;2022-07-15T07:54:41;17.40;99.10
11991;DHT22;6055;52.522;13.446;2022-07-15T07:57:09;17.70;97.90
11991;DHT22;6055;52.522;13.446;2022-07-15T07:59:35;17.90;97.80
11991;DHT22;6055;52.522;13.446;2022-07-15T08:02:00;17.90;97.20
11991;DHT22;6055;52.522;13.446;2022-07-15T08:04:26;17.60;97.10
11991;DHT22;6055;52.522;13.446;2022-07-15T08:06:51;17.60;96.90
11991;DHT22;6055;52.522;13.446;2022-07-15T08:09:17;17.60;97.00
11991;DHT22;6055;52.522;13.446;2022-07-15T08:11:43;17.60;96.50
11991;DHT22;6055;52.522;13.446;2022-07-15T08:14:10;17.60;96.60
11991;DHT22;6055;52.522;13.446;2022-07-15T08:16:35;17.50;96.00
11991;DHT22;6055;52.522;13.446;2022-07-15T08:19:02;17.80;96.20
11991;DHT22;6055;52.522;13.446;2022-07-15T08:21:27;17.70;95.70
11991;DHT22;6055;52.522;13.446;2022-07-15T08:23:53;17.60;95.10
11991;DHT22;6055;52.522;13.446;2022-07-15T08:26:20;17.60;94.90
11991;DHT22;6055;52.522;13.446;2022-07-15T08:28:49;17.70;95.00
11991;DHT22;6055;52.522;13.446;2022-07-15T08:31:15;17.90;94.70
11991;DHT22;6055;52.522;13.446;2022-07-15T08:33:41;17.80;94.50
11991;DHT22;6055;52.522;13.446;2022-07-15T08:36:07;17.80;95.10
11991;DHT22;6055;52.522;13.446;2022-07-15T08:38:33;17.80;95.00
11991;DHT22;6055;52.522;13.446;2022-07-15T08:40:58;18.00;94.00
11991;DHT22;6055;52.522;13.446;2022-07-15T08:43:24;18.10;93.40
11991;DHT22;6055;52.522;13.446;2022-07-15T08:45:50;18.40;93.00
11991;DHT22;6055;52.522;13.446;2022-07-15T08:48:17;19.10;91.80
11991;DHT22;6055;52.522;13.446;2022-07-15T08:50:43;19.20;91.40
11991;DHT22;6055;52.522;13.446;2022-07-15T08:53:10;19.00;91.40
11991;DHT22;6055;52.522;13.446;2022-07-15T08:55:36;18.70;91.80
11991;DHT22;6055;52.522;13.446;2022-07-15T08:58:01;18.50;92.30
11991;DHT22;6055;52.522;13.446;2022-07-15T09:00:27;18.30;92.50
11991;DHT22;6055;52.522;13.446;2022-07-15T09:02:58;18.30;92.60
11991;DHT22;6055;52.522;13.446;2022-07-15T09:05:27;18.20;92.50
11991;DHT22;6055;52.522;13.446;2022-07-15T09:07:54;18.10;92.90
11991;DHT22;6055;52.522;13.446;2022-07-15T09:10:21;18.10;92.80
11991;DHT22;6055;52.522;13.446;2022-07-15T09:12:52;18.00;92.80
11991;DHT22;6055;52.522;13.446;2022-07-15T09:15:35;18.10;93.00
11991;DHT22;6055;52.522;13.446;2022-07-15T09:18:07;18.30;92.70
11991;DHT22;6055;52.522;13.446;2022-07-15T09:20:33;18.30;92.70
11991;DHT22;6055;52.522;13.446;2022-07-15T09:22:59;18.20;93.20
11991;DHT22;6055;52.522;13.446;2022-07-15T09:25:27;18.30;93.70
11991;DHT22;6055;52.522;13.446;2022-07-15T09:27:53;18.50;93.20
11991;DHT22;6055;52.522;13.446;2022-07-15T09:30:28;18.50;93.20
11991;DHT22;6055;52.522;13.446;2022-07-15T09:33:25;18.70;92.90
11991;DHT22;6055;52.522;13.446;2022-07-15T09:41:10;18.90;92.70
11991;DHT22;6055;52.522;13.446;2022-07-15T09:43:47;18.90;92.60
11991;DHT22;6055;52.522;13.446;2022-07-15T09:46:13;19.00;92.40
11991;DHT22;6055;52.522;13.446;2022-07-15T09:48:41;19.10;92.30
11991;DHT22;6055;52.522;13.446;2022-07-15T09:51:06;19.20;91.30
11991;DHT22;6055;52.522;13.446;2022-07-15T09:53:32;19.20;91.60
11991;DHT22;6055;52.522;13.446;2022-07-15T09:55:58;19.40;91.20
11991;DHT22;6055;52.522;13.446;2022-07-15T09:58:25;19.60;91.00
11991;DHT22;6055;52.522;13.446;2022-07-15T10:00:51;20.00;90.50
11991;DHT22;6055;52.522;13.446;2022-07-15T10:03:19;20.00;90.40
11991;DHT22;6055;52.522;13.446;2022-07-15T10:05:53;19.90;90.50
11991;DHT22;6055;52.522;13.446;2022-07-15T10:08:22;20.10;91.20
11991;DHT22;6055;52.522;13.446;2022-07-15T10:10:48;20.90;88.60
11991;DHT22;6055;52.522;13.446;2022-07-15T10:16:33;21.20;87.40
11991;DHT22;6055;52.522;13.446;2022-07-15T10:19:17;21.70;86.30
11991;DHT22;6055;52.522;13.446;2022-07-15T10:24:48;21.60;84.60
11991;DHT22;6055;52.522;13.446;2022-07-15T10:27:27;21.20;85.00
11991;DHT22;6055;52.522;13.446;2022-07-15T10:29:57;20.30;86.60
11991;DHT22;6055;52.522;13.446;2022-07-15T10:32:27;20.00;88.50
11991;DHT22;6055;52.522;13.446;2022-07-15T10:34:53;19.80;88.70
11991;DHT22;6055;52.522;13.446;2022-07-15T10:37:18;19.50;90.00
11991;DHT22;6055;52.522;13.446;2022-07-15T10:39:51;19.40;90.40
11991;DHT22;6055;52.522;13.446;2022-07-15T10:42:18;19.50;89.60
11991;DHT22;6055;52.522;13.446;2022-07-15T10:47:25;19.20;89.90
11991;DHT22;6055;52.522;13.446;2022-07-15T10:49:54;19.20;90.40
11991;DHT22;6055;52.522;13.446;2022-07-15T10:52:30;19.20;90.60
11991;DHT22;6055;52.522;13.446;2022-07-15T11:00:28;19.20;90.80
11991;DHT22;6055;52.522;13.446;2022-07-15T11:03:14;19.40;89.30
11991;DHT22;6055;52.522;13.446;2022-07-15T11:13:42;20.70;86.10
11991;DHT22;6055;52.522;13.446;2022-07-15T11:16:12;20.90;84.80
11991;DHT22;6055;52.522;13.446;2022-07-15T11:21:11;20.60;84.80
11991;DHT22;6055;52.522;13.446;2022-07-15T11:23:37;20.80;85.30
11991;DHT22;6055;52.522;13.446;2022-07-15T11:26:03;20.90;85.30
11991;DHT22;6055;52.522;13.446;2022-07-15T11:28:29;20.90;85.30
11991;DHT22;6055;52.522;13.446;2022-07-15T11:30:54;21.20;84.60
11991;DHT22;6055;52.522;13.446;2022-07-15T11:33:23;21.30;85.10
11991;DHT22;6055;52.522;13.446;2022-07-15T11:38:23;21.00;82.90
11991;DHT22;6055;52.522;13.446;2022-07-15T11:40:52;20.60;84.10
11991;DHT22;6055;52.522;13.446;2022-07-15T11:43:37;20.20;85.60
11991;DHT22;6055;52.522;13.446;2022-07-15T11:46:21;19.90;86.50
11991;DHT22;6055;52.522;13.446;2022-07-15T11:48:50;19.80;86.80
11991;DHT22;6055;52.522;13.446;2022-07-15T11:51:16;19.60;87.10
11991;DHT22;6055;52.522;13.446;2022-07-15T11:53:48;19.60;88.10
11991;DHT22;6055;52.522;13.446;2022-07-15T11:56:15;19.70;88.30
11991;DHT22;6055;52.522;13.446;2022-07-15T11:58:42;20.00;86.80
11991;DHT22;6055;52.522;13.446;2022-07-15T12:01:12;20.20;85.80
11991;DHT22;6055;52.522;13.446;2022-07-15T12:03:42;20.20;86.20
11991;DHT22;6055;52.522;13.446;2022-07-15T12:06:11;20.50;85.70
11991;DHT22;6055;52.522;13.446;2022-07-15T12:11:25;20.60;86.90
11991;DHT22;6055;52.522;13.446;2022-07-15T12:13:59;20.40;88.00
11991;DHT22;6055;52.522;13.446;2022-07-15T12:16:35;20.20;88.90
11991;DHT22;6055;52.522;13.446;2022-07-15T12:19:12;20.50;86.60
11991;DHT22;6055;52.522;13.446;2022-07-15T12:21:39;20.30;87.50
11991;DHT22;6055;52.522;13.446;2022-07-15T12:24:17;20.60;87.60
11991;DHT22;6055;52.522;13.446;2022-07-15T12:27:03;21.10;86.20
11991;DHT22;6055;52.522;13.446;2022-07-15T12:29:31;21.00;84.10
11991;DHT22;6055;52.522;13.446;2022-07-15T12:32:02;21.20;84.20
11991;DHT22;6055;52.522;13.446;2022-07-15T12:37:24;21.70;80.90
11991;DHT22;6055;52.522;13.446;2022-07-15T12:42:25;21.60;80.00
11991;DHT22;6055;52.522;13.446;2022-07-15T12:45:08;21.20;81.40
11991;DHT22;6055;52.522;13.446;2022-07-15T12:47:35;20.70;82.30
11991;DHT22;6055;52.522;13.446;2022-07-15T12:50:00;20.40;83.90
11991;DHT22;6055;52.522;13.446;2022-07-15T12:52:37;20.20;83.80
11991;DHT22;6055;52.522;13.446;2022-07-15T12:55:17;20.30;84.50
11991;DHT22;6055;52.522;13.446;2022-07-15T12:57:45;20.40;84.80
11991;DHT22;6055;52.522;13.446;2022-07-15T13:00:16;20.50;84.80
11991;DHT22;6055;52.522;13.446;2022-07-15T13:03:01;20.50;85.70
11991;DHT22;6055;52.522;13.446;2022-07-15T13:05:38;20.60;85.50
11991;DHT22;6055;52.522;13.446;2022-07-15T13:08:08;21.20;84.70
11991;DHT22;6055;52.522;13.446;2022-07-15T13:10:34;22.00;81.70
11991;DHT22;6055;52.522;13.446;2022-07-15T13:13:00;22.50;80.00
11991;DHT22;6055;52.522;13.446;2022-07-15T13:15:26;22.70;78.20
11991;DHT22;6055;52.522;13.446;2022-07-15T13:17:52;22.70;78.70
11991;DHT22;6055;52.522;13.446;2022-07-15T13:20:18;22.40;78.60
11991;DHT22;6055;52.522;13.446;2022-07-15T13:22:44;22.00;80.30
11991;DHT22;6055;52.522;13.446;2022-07-15T13:25:10;21.20;81.30
11991;DHT22;6055;52.522;13.446;2022-07-15T13:27:38;21.00;82.00
11991;DHT22;6055;52.522;13.446;2022-07-15T13:30:04;20.90;82.60
11991;DHT22;6055;52.522;13.446;2022-07-15T13:32:31;20.80;83.40
11991;DHT22;6055;52.522;13.446;2022-07-15T13:34:56;20.80;83.60
11991;DHT22;6055;52.522;13.446;2022-07-15T13:37:22;20.90;83.40
11991;DHT22;6055;52.522;13.446;2022-07-15T13:39:47;20.80;83.10
11991;DHT22;6055;52.522;13.446;2022-07-15T13:42:13;21.00;81.90
11991;DHT22;6055;52.522;13.446;2022-07-15T13:44:41;21.00;81.40
11991;DHT22;6055;52.522;13.446;2022-07-15T13:47:07;21.00;81.60
11991;DHT22;6055;52.522;13.446;2022-07-15T13:49:32;21.00;82.20
11991;DHT22;6055;52.522;13.446;2022-07-15T13:52:16;21.20;82.30
11991;DHT22;6055;52.522;13.446;2022-07-15T13:54:42;21.60;82.20
11991;DHT22;6055;52.522;13.446;2022-07-15T13:57:07;21.40;80.70
11991;DHT22;6055;52.522;13.446;2022-07-15T13:59:33;21.30;80.00
11991;DHT22;6055;52.522;13.446;2022-07-15T14:01:58;20.80;81.30
11991;DHT22;6055;52.522;13.446;2022-07-15T14:04:24;20.50;82.90
11991;DHT22;6055;52.522;13.446;2022-07-15T14:06:49;20.40;83.80
11991;DHT22;6055;52.522;13.446;2022-07-15T14:09:15;20.30;84.40
11991;DHT22;6055;52.522;13.446;2022-07-15T14:11:41;20.30;84.60
11991;DHT22;6055;52.522;13.446;2022-07-15T14:14:06;20.30;84.80
11991;DHT22;6055;52.522;13.446;2022-07-15T14:16:32;20.30;84.70
11991;DHT22;6055;52.522;13.446;2022-07-15T14:18:57;20.50;84.50
11991;DHT22;6055;52.522;13.446;2022-07-15T14:21:23;20.80;84.00
11991;DHT22;6055;52.522;13.446;2022-07-15T14:23:49;20.90;82.80
11991;DHT22;6055;52.522;13.446;2022-07-15T14:26:15;20.90;83.10
11991;DHT22;6055;52.522;13.446;2022-07-15T14:28:42;21.00;84.30
11991;DHT22;6055;52.522;13.446;2022-07-15T14:31:10;20.90;83.10
11991;DHT22;6055;52.522;13.446;2022-07-15T14:33:38;20.90;83.60
11991;DHT22;6055;52.522;13.446;2022-07-15T14:36:05;21.10;83.60
11991;DHT22;6055;52.522;13.446;2022-07-15T14:38:30;21.20;83.30
11991;DHT22;6055;52.522;13.446;2022-07-15T14:40:57;21.60;82.30
11991;DHT22;6055;52.522;13.446;2022-07-15T14:43:22;22.10;81.20
11991;DHT22;6055;52.522;13.446;2022-07-15T14:45:48;22.30;81.10
11991;DHT22;6055;52.522;13.446;2022-07-15T14:48:13;22.30;79.10
11991;DHT22;6055;52.522;13.446;2022-07-15T14:50:39;22.30;78.20
11991;DHT22;6055;52.522;13.446;2022-07-15T14:53:04;22.40;79.40
11991;DHT22;6055;52.522;13.446;2022-07-15T14:55:31;22.30;76.10
11991;DHT22;6055;52.522;13.446;2022-07-15T14:57:56;22.30;75.80
11991;DHT22;6055;52.522;13.446;2022-07-15T15:00:22;22.40;75.30
11991;DHT22;6055;52.522;13.446;2022-07-15T15:02:48;22.50;74.90
11991;DHT22;6055;52.522;13.446;2022-07-15T15:05:14;22.70;75.80
11991;DHT22;6055;52.522;13.446;2022-07-15T15:07:40;22.70;75.80
11991;DHT22;6055;52.522;13.446;2022-07-15T15:10:05;22.70;76.30
11991;DHT22;6055;52.522;13.446;2022-07-15T15:12:31;22.20;76.70
11991;DHT22;6055;52.522;13.446;2022-07-15T15:14:56;21.80;77.80
11991;DHT22;6055;52.522;13.446;2022-07-15T15:17:22;21.50;79.10
11991;DHT22;6055;52.522;13.446;2022-07-15T15:19:48;21.20;80.10
11991;DHT22;6055;52.522;13.446;2022-07-15T15:22:13;21.10;81.70
11991;DHT22;6055;52.522;13.446;2022-07-15T15:24:39;21.00;81.20
11991;DHT22;6055;52.522;13.446;2022-07-15T15:27:05;20.90;81.00
11991;DHT22;6055;52.522;13.446;2022-07-15T15:29:32;20.90;81.60
11991;DHT22;6055;52.522;13.446;2022-07-15T15:31:58;20.90;81.90
11991;DHT22;6055;52.522;13.446;2022-07-15T15:34:24;21.00;82.50
11991;DHT22;6055;52.522;13.446;2022-07-15T15:36:50;21.10;81.50
11991;DHT22;6055;52.522;13.446;2022-07-15T15:39:16;21.10;81.90
11991;DHT22;6055;52.522;13.446;2022-07-15T15:41:42;21.00;81.70
11991;DHT22;6055;52.522;13.446;2022-07-15T15:44:08;20.90;82.20
11991;DHT22;6055;52.522;13.446;2022-07-15T15:46:33;20.70;82.60
11991;DHT22;6055;52.522;13.446;2022-07-15T15:48:59;20.50;82.80
11991;DHT22;6055;52.522;13.446;2022-07-15T15:51:25;20.40;83.10
11991;DHT22;6055;52.522;13.446;2022-07-15T15:53:50;20.40;83.60
11991;DHT22;6055;52.522;13.446;2022-07-15T15:56:16;20.50;82.80
11991;DHT22;6055;52.522;13.446;2022-07-15T15:58:42;20.90;82.10
11991;DHT22;6055;52.522;13.446;2022-07-15T16:01:07;21.30;80.80
11991;DHT22;6055;52.522;13.446;2022-07-15T16:03:33;21.50;80.80
11991;DHT22;6055;52.522;13.446;2022-07-15T16:05:58;21.60;79.50
11991;DHT22;6055;52.522;13.446;2022-07-15T16:08:26;21.70;80.00
11991;DHT22;6055;52.522;13.446;2022-07-15T16:10:51;21.80;79.30
11991;DHT22;6055;52.522;13.446;2022-07-15T16:13:17;22.00;78.70